createdAt,value
2022-12-08T00:00:50.748Z,10.30
2022-12-08T00:01:50.849Z,9.40
2022-12-08T00:02:50.853Z,10.30
2022-12-08T00:03:50.724Z,9.40
2022-12-08T00:04:50.681Z,8.30
2022-12-08T00:05:50.697Z,7.40
2022-12-08T00:06:50.662Z,11.40
2022-12-08T00:07:50.765Z,7.00
2022-12-08T00:08:50.646Z,7.20
2022-12-08T00:09:50.628Z,6.20
2022-12-08T00:10:50.631Z,8.00
2022-12-08T00:11:50.631Z,8.80
2022-12-08T00:12:50.610Z,8.20
2022-12-08T00:13:50.569Z,7.50
2022-12-08T00:14:50.635Z,8.00
2022-12-08T00:15:50.578Z,7.10
2022-12-08T00:16:50.628Z,7.50
2022-12-08T00:17:50.558Z,6.50
2022-12-08T00:18:50.533Z,8.20
2022-12-08T00:19:50.543Z,7.20
2022-12-08T00:20:50.514Z,7.80
2022-12-08T00:21:50.480Z,7.10
2022-12-08T00:22:50.516Z,8.80
2022-12-08T00:23:50.460Z,6.00
2022-12-08T00:24:50.457Z,5.80
2022-12-08T00:25:50.466Z,7.20
2022-12-08T00:26:50.474Z,7.10
2022-12-08T00:27:50.436Z,7.80
2022-12-08T00:28:50.444Z,6.80
2022-12-08T00:29:50.415Z,6.90
2022-12-08T00:30:50.395Z,8.80
2022-12-08T00:31:50.501Z,7.10
2022-12-08T00:32:50.365Z,6.30
2022-12-08T00:33:50.342Z,8.80
2022-12-08T00:34:50.453Z,5.90
2022-12-08T00:35:50.336Z,6.10
2022-12-08T00:36:50.356Z,7.50
2022-12-08T00:37:50.336Z,6.10
2022-12-08T00:38:50.306Z,6.80
2022-12-08T00:39:50.286Z,6.30
2022-12-08T00:40:50.307Z,7.40
2022-12-08T00:41:50.268Z,6.80
2022-12-08T00:42:50.279Z,8.10
2022-12-08T00:43:50.275Z,7.70
2022-12-08T00:44:50.250Z,10.10
2022-12-08T00:45:50.261Z,8.50
2022-12-08T00:46:50.195Z,9.50
2022-12-08T00:47:50.215Z,7.60
2022-12-08T00:48:50.195Z,7.20
2022-12-08T00:49:50.218Z,7.90
2022-12-08T00:50:50.187Z,7.40
2022-12-08T00:51:50.156Z,7.90
2022-12-08T00:52:50.125Z,7.40
2022-12-08T00:53:50.161Z,8.20
2022-12-08T00:54:50.121Z,6.10
2022-12-08T00:55:50.103Z,7.90
2022-12-08T00:56:50.121Z,7.80
2022-12-08T00:57:50.097Z,6.50
2022-12-08T00:58:50.079Z,7.50
2022-12-08T00:59:50.060Z,8.50
2022-12-08T01:00:50.105Z,7.50
2022-12-08T01:01:50.071Z,9.00
2022-12-08T01:02:50.135Z,7.00
2022-12-08T01:03:50.090Z,9.00
2022-12-08T01:04:50.062Z,8.00
2022-12-08T01:05:49.978Z,9.50
2022-12-08T01:06:49.992Z,7.40
2022-12-08T01:07:50.039Z,9.20
2022-12-08T01:08:49.946Z,7.70
2022-12-08T01:09:49.960Z,8.10
2022-12-08T01:10:49.920Z,7.70
2022-12-08T01:11:49.945Z,8.90
2022-12-08T01:12:49.934Z,8.00
2022-12-08T01:13:49.913Z,8.70
2022-12-08T01:14:49.880Z,9.10
2022-12-08T01:15:49.873Z,11.40
2022-12-08T01:16:49.965Z,9.30
2022-12-08T01:17:49.890Z,9.60
2022-12-08T01:18:49.855Z,9.40
2022-12-08T01:19:49.821Z,11.00
2022-12-08T01:20:49.812Z,7.20
2022-12-08T01:21:49.834Z,8.00
2022-12-08T01:22:49.781Z,10.90
2022-12-08T01:23:49.792Z,8.10
2022-12-08T01:24:49.771Z,7.60
2022-12-08T01:25:49.780Z,9.60
2022-12-08T01:26:49.766Z,8.80
2022-12-08T01:27:49.765Z,9.60
2022-12-08T01:28:49.713Z,11.60
2022-12-08T01:29:49.723Z,9.50
2022-12-08T01:30:49.767Z,9.20
2022-12-08T01:31:49.739Z,8.70
2022-12-08T01:32:49.687Z,8.60
2022-12-08T01:33:49.653Z,9.90
2022-12-08T01:34:49.681Z,10.90
2022-12-08T01:35:49.648Z,10.00
2022-12-08T01:36:49.657Z,13.20
2022-12-08T01:37:49.628Z,12.20
2022-12-08T01:38:49.608Z,9.30
2022-12-08T01:39:49.615Z,9.50
2022-12-08T01:40:49.599Z,9.00
2022-12-08T01:41:49.622Z,9.30
2022-12-08T01:42:49.579Z,8.40
2022-12-08T01:43:49.558Z,9.70
2022-12-08T01:44:49.587Z,9.50
2022-12-08T01:45:49.574Z,10.00
2022-12-08T01:46:49.537Z,9.30
2022-12-08T01:47:49.520Z,9.40
2022-12-08T01:48:49.507Z,10.60
2022-12-08T01:49:49.498Z,8.20
2022-12-08T01:50:49.712Z,8.80
2022-12-08T01:51:49.477Z,8.80
2022-12-08T01:52:49.480Z,8.70
2022-12-08T01:53:49.452Z,8.10
2022-12-08T01:54:49.447Z,9.30
2022-12-08T01:55:49.417Z,5.60
2022-12-08T01:56:49.431Z,6.40
2022-12-08T01:57:49.387Z,8.20
2022-12-08T01:58:49.433Z,6.70
2022-12-08T01:59:49.371Z,6.80
2022-12-08T02:00:49.364Z,7.00
2022-12-08T02:01:49.393Z,5.40
2022-12-08T02:02:49.375Z,5.90
2022-12-08T02:03:49.341Z,7.50
2022-12-08T02:04:49.358Z,6.20
2022-12-08T02:05:49.305Z,6.90
2022-12-08T02:06:49.302Z,8.00
2022-12-08T02:07:49.374Z,5.00
2022-12-08T02:08:49.304Z,6.90
2022-12-08T02:09:49.264Z,6.90
2022-12-08T02:10:49.255Z,5.30
2022-12-08T02:11:49.244Z,6.60
2022-12-08T02:12:49.250Z,5.70
2022-12-08T02:13:49.213Z,6.50
2022-12-08T02:14:49.210Z,5.80
2022-12-08T02:15:49.230Z,6.30
2022-12-08T02:16:49.175Z,5.60
2022-12-08T02:17:49.182Z,6.70
2022-12-08T02:19:07.938Z,6.80
2022-12-08T02:19:50.131Z,5.20
2022-12-08T02:20:49.123Z,6.60
2022-12-08T02:21:49.147Z,6.30
2022-12-08T02:22:49.166Z,7.80
2022-12-08T02:23:49.127Z,8.70
2022-12-08T02:24:49.176Z,6.20
2022-12-08T02:25:49.076Z,5.80
2022-12-08T02:26:49.078Z,6.10
2022-12-08T02:27:49.048Z,6.10
2022-12-08T02:28:49.077Z,5.40
2022-12-08T02:29:49.054Z,5.60
2022-12-08T02:30:49.068Z,7.10
2022-12-08T02:31:49.015Z,4.80
2022-12-08T02:32:49.005Z,6.60
2022-12-08T02:33:48.971Z,5.50
2022-12-08T02:34:48.969Z,6.00
2022-12-08T02:35:48.965Z,4.90
2022-12-08T02:36:48.938Z,7.50
2022-12-08T02:37:48.977Z,6.50
2022-12-08T02:38:48.911Z,5.00
2022-12-08T02:39:48.930Z,6.10
2022-12-08T02:40:48.916Z,4.70
2022-12-08T02:41:48.907Z,6.50
2022-12-08T02:42:48.920Z,6.60
2022-12-08T02:43:48.847Z,6.10
2022-12-08T02:44:48.869Z,5.40
2022-12-08T02:45:48.970Z,5.20
2022-12-08T02:46:48.874Z,6.30
2022-12-08T02:47:48.807Z,6.10
2022-12-08T02:48:48.850Z,6.10
2022-12-08T02:49:48.845Z,6.30
2022-12-08T02:50:48.811Z,6.10
2022-12-08T02:51:48.787Z,5.80
2022-12-08T02:52:48.750Z,6.70
2022-12-08T02:53:48.771Z,7.40
2022-12-08T02:54:48.761Z,7.00
2022-12-08T02:55:48.753Z,4.90
2022-12-08T02:56:48.707Z,7.40
2022-12-08T02:57:48.730Z,7.80
2022-12-08T02:58:48.723Z,6.90
2022-12-08T02:59:48.680Z,7.20
2022-12-08T03:00:48.727Z,7.10
2022-12-08T03:01:48.843Z,5.50
2022-12-08T03:02:48.747Z,5.60
2022-12-08T03:03:48.669Z,6.00
2022-12-08T03:04:48.623Z,5.20
2022-12-08T03:05:48.630Z,5.50
2022-12-08T03:06:48.593Z,5.80
2022-12-08T03:07:48.630Z,4.90
2022-12-08T03:08:48.585Z,5.20
2022-12-08T03:09:48.581Z,5.80
2022-12-08T03:10:48.562Z,5.90
2022-12-08T03:11:48.541Z,4.70
2022-12-08T03:12:48.535Z,5.50
2022-12-08T03:13:48.541Z,4.80
2022-12-08T03:14:48.520Z,4.70
2022-12-08T03:15:48.584Z,5.00
2022-12-08T03:16:48.529Z,5.50
2022-12-08T03:17:48.485Z,4.70
2022-12-08T03:18:48.444Z,5.10
2022-12-08T03:19:48.456Z,5.60
2022-12-08T03:20:48.466Z,4.00
2022-12-08T03:21:48.413Z,5.00
2022-12-08T03:22:48.427Z,5.00
2022-12-08T03:23:48.625Z,4.60
2022-12-08T03:24:48.388Z,5.10
2022-12-08T03:25:48.398Z,4.50
2022-12-08T03:26:48.354Z,4.90
2022-12-08T03:27:48.381Z,5.40
2022-12-08T03:28:48.335Z,5.80
2022-12-08T03:29:48.338Z,7.20
2022-12-08T03:30:48.389Z,6.80
2022-12-08T03:31:48.304Z,5.70
2022-12-08T03:32:48.321Z,6.20
2022-12-08T03:33:48.283Z,5.20
2022-12-08T03:34:48.290Z,5.90
2022-12-08T03:35:48.280Z,5.20
2022-12-08T03:36:48.250Z,5.80
2022-12-08T03:37:48.239Z,6.00
2022-12-08T03:38:48.347Z,6.10
2022-12-08T03:39:48.219Z,7.60
2022-12-08T03:40:48.201Z,6.60
2022-12-08T03:41:48.190Z,6.70
2022-12-08T03:42:48.188Z,7.40
2022-12-08T03:43:48.188Z,6.30
2022-12-08T03:44:48.181Z,6.90
2022-12-08T03:45:48.159Z,6.20
2022-12-08T03:46:48.131Z,6.00
2022-12-08T03:47:48.100Z,5.90
2022-12-08T03:48:48.100Z,6.30
2022-12-08T03:49:48.132Z,6.80
2022-12-08T03:50:48.126Z,6.70
2022-12-08T03:51:48.083Z,6.70
2022-12-08T03:52:48.070Z,6.00
2022-12-08T03:53:48.057Z,6.40
2022-12-08T03:54:48.042Z,7.30
2022-12-08T03:55:48.050Z,8.20
2022-12-08T03:56:48.032Z,9.00
2022-12-08T03:57:47.994Z,8.20
2022-12-08T03:58:47.982Z,7.30
2022-12-08T03:59:48.014Z,7.50
2022-12-08T04:00:47.980Z,8.60
2022-12-08T04:01:48.043Z,6.80
2022-12-08T04:02:48.005Z,5.80
2022-12-08T04:03:47.923Z,6.00
2022-12-08T04:04:47.945Z,5.70
2022-12-08T04:05:47.931Z,5.70
2022-12-08T04:06:47.913Z,5.20
2022-12-08T04:07:47.935Z,6.10
2022-12-08T04:08:47.877Z,7.00
2022-12-08T04:09:47.906Z,5.30
2022-12-08T04:10:47.873Z,5.80
2022-12-08T04:11:47.866Z,5.90
2022-12-08T04:12:47.868Z,5.50
2022-12-08T04:13:47.805Z,5.60
2022-12-08T04:14:47.817Z,5.10
2022-12-08T04:15:47.857Z,5.10
2022-12-08T04:16:47.807Z,5.70
2022-12-08T04:17:47.806Z,5.50
2022-12-08T04:18:47.766Z,5.10
2022-12-08T04:19:47.758Z,6.10
2022-12-08T04:20:47.735Z,5.70
2022-12-08T04:21:47.738Z,6.20
2022-12-08T04:22:47.750Z,5.50
2022-12-08T04:23:47.748Z,5.50
2022-12-08T04:24:47.709Z,5.90
2022-12-08T04:25:47.688Z,6.00
2022-12-08T04:26:47.666Z,6.90
2022-12-08T04:27:47.669Z,7.60
2022-12-08T04:28:47.670Z,5.70
2022-12-08T04:29:47.678Z,7.70
2022-12-08T04:30:47.642Z,5.40
2022-12-08T04:31:47.672Z,4.90
2022-12-08T04:32:47.791Z,6.80
2022-12-08T04:33:47.603Z,5.90
2022-12-08T04:34:47.607Z,4.70
2022-12-08T04:35:47.580Z,6.00
2022-12-08T04:36:47.584Z,6.40
2022-12-08T04:37:47.536Z,5.80
2022-12-08T04:38:47.540Z,5.90
2022-12-08T04:39:47.511Z,7.00
2022-12-08T04:40:47.543Z,5.70
2022-12-08T04:41:47.520Z,5.40
2022-12-08T04:42:47.492Z,6.30
2022-12-08T04:43:47.481Z,6.00
2022-12-08T04:44:47.510Z,6.00
2022-12-08T04:45:47.459Z,6.80
2022-12-08T04:46:47.494Z,6.30
2022-12-08T04:47:47.443Z,6.10
2022-12-08T04:48:47.445Z,6.30
2022-12-08T04:49:47.439Z,6.70
2022-12-08T04:50:47.406Z,6.70
2022-12-08T04:51:47.402Z,7.40
2022-12-08T04:52:47.383Z,7.00
2022-12-08T04:53:47.390Z,8.10
2022-12-08T04:54:47.363Z,7.50
2022-12-08T04:55:47.365Z,6.30
2022-12-08T04:56:47.353Z,6.70
2022-12-08T04:57:47.324Z,7.70
2022-12-08T04:58:47.331Z,7.10
2022-12-08T04:59:47.306Z,8.30
2022-12-08T05:00:47.303Z,6.80
2022-12-08T05:01:47.454Z,7.20
2022-12-08T05:02:47.300Z,7.40
2022-12-08T05:03:47.243Z,5.90
2022-12-08T05:04:47.275Z,6.80
2022-12-08T05:05:47.239Z,8.50
2022-12-08T05:06:47.246Z,6.50
2022-12-08T05:07:47.257Z,6.30
2022-12-08T05:08:47.198Z,7.20
2022-12-08T05:09:47.208Z,6.10
2022-12-08T05:10:47.178Z,6.50
2022-12-08T05:11:49.289Z,7.10
2022-12-08T05:12:47.164Z,7.70
2022-12-08T05:13:47.131Z,8.10
2022-12-08T05:14:47.164Z,9.00
2022-12-08T05:15:47.153Z,7.90
2022-12-08T05:16:47.174Z,8.30
2022-12-08T05:17:47.100Z,9.70
2022-12-08T05:18:47.074Z,9.00
2022-12-08T05:19:47.057Z,8.80
2022-12-08T05:20:47.118Z,9.40
2022-12-08T05:21:47.050Z,9.40
2022-12-08T05:22:47.048Z,8.80
2022-12-08T05:23:47.031Z,6.70
2022-12-08T05:24:47.794Z,7.10
2022-12-08T05:25:47.033Z,8.20
2022-12-08T05:26:46.999Z,8.40
2022-12-08T05:27:46.967Z,8.10
2022-12-08T05:28:46.987Z,8.50
2022-12-08T05:29:46.957Z,9.30
2022-12-08T05:30:46.971Z,11.40
2022-12-08T05:31:46.977Z,13.60
2022-12-08T05:32:46.932Z,11.20
2022-12-08T05:33:46.910Z,10.00
2022-12-08T05:34:46.908Z,12.10
2022-12-08T05:35:46.912Z,10.30
2022-12-08T05:36:46.867Z,10.90
2022-12-08T05:37:46.862Z,9.90
2022-12-08T05:38:46.912Z,10.80
2022-12-08T05:39:46.830Z,9.70
2022-12-08T05:40:46.821Z,13.10
2022-12-08T05:41:46.843Z,14.40
2022-12-08T05:42:46.803Z,10.90
2022-12-08T05:43:46.771Z,11.30
2022-12-08T05:44:46.802Z,10.10
2022-12-08T05:45:46.869Z,9.70
2022-12-08T05:46:46.771Z,10.20
2022-12-08T05:47:46.755Z,11.00
2022-12-08T05:48:46.733Z,10.90
2022-12-08T05:49:46.753Z,11.40
2022-12-08T05:50:46.706Z,13.60
2022-12-08T05:51:46.724Z,15.10
2022-12-08T05:52:46.685Z,11.50
2022-12-08T05:53:46.695Z,11.30
2022-12-08T05:54:46.703Z,12.70
2022-12-08T05:55:46.683Z,11.60
2022-12-08T05:56:46.677Z,13.20
2022-12-08T05:57:46.635Z,12.30
2022-12-08T05:58:46.645Z,12.60
2022-12-08T05:59:46.606Z,11.00
2022-12-08T06:00:46.609Z,14.40
2022-12-08T06:01:46.609Z,12.90
2022-12-08T06:02:46.667Z,11.70
2022-12-08T06:03:46.587Z,12.40
2022-12-08T06:04:46.535Z,12.60
2022-12-08T06:05:46.537Z,11.10
2022-12-08T06:06:46.527Z,12.30
2022-12-08T06:07:46.561Z,12.50
2022-12-08T06:08:46.493Z,12.80
2022-12-08T06:09:46.612Z,11.70
2022-12-08T06:10:46.518Z,11.90
2022-12-08T06:11:46.474Z,12.30
2022-12-08T06:12:46.466Z,12.30
2022-12-08T06:13:46.455Z,11.70
2022-12-08T06:14:46.428Z,15.20
2022-12-08T06:15:46.479Z,16.40
2022-12-08T06:16:46.517Z,13.50
2022-12-08T06:17:46.382Z,13.10
2022-12-08T06:18:46.366Z,12.50
2022-12-08T06:19:46.370Z,11.10
2022-12-08T06:20:46.400Z,13.20
2022-12-08T06:21:46.401Z,13.10
2022-12-08T06:22:46.341Z,13.90
2022-12-08T06:23:46.331Z,12.70
2022-12-08T06:24:46.332Z,15.20
2022-12-08T06:25:46.307Z,13.60
2022-12-08T06:26:46.334Z,15.40
2022-12-08T06:27:46.275Z,15.50
2022-12-08T06:28:46.273Z,13.00
2022-12-08T06:29:46.275Z,13.20
2022-12-08T06:30:46.257Z,13.90
2022-12-08T06:31:46.536Z,15.70
2022-12-08T06:32:46.201Z,13.40
2022-12-08T06:33:46.219Z,14.80
2022-12-08T06:34:46.210Z,16.40
2022-12-08T06:35:46.182Z,17.80
2022-12-08T06:36:46.221Z,15.50
2022-12-08T06:37:46.149Z,14.80
2022-12-08T06:38:46.184Z,15.00
2022-12-08T06:39:46.137Z,14.30
2022-12-08T06:40:46.120Z,17.10
2022-12-08T06:41:46.112Z,17.30
2022-12-08T06:42:46.130Z,16.70
2022-12-08T06:43:46.116Z,15.70
2022-12-08T06:44:46.123Z,15.80
2022-12-08T06:45:46.081Z,17.50
2022-12-08T06:46:46.064Z,15.60
2022-12-08T06:47:46.077Z,12.40
2022-12-08T06:48:46.012Z,15.00
2022-12-08T06:49:46.022Z,10.30
2022-12-08T06:50:46.005Z,12.20
2022-12-08T06:51:45.995Z,11.00
2022-12-08T06:52:57.027Z,10.70
2022-12-08T06:53:47.016Z,9.40
2022-12-08T06:54:45.964Z,11.70
2022-12-08T06:56:01.298Z,11.70
2022-12-08T06:56:46.963Z,13.30
2022-12-08T06:57:45.938Z,9.30
2022-12-08T06:58:50.620Z,8.10
2022-12-08T06:59:46.926Z,11.70
2022-12-08T07:00:45.959Z,8.90
2022-12-08T07:01:45.949Z,9.30
2022-12-08T07:02:45.918Z,7.50
2022-12-08T07:03:48.896Z,8.50
2022-12-08T07:04:45.901Z,5.70
2022-12-08T07:05:45.848Z,7.20
2022-12-08T07:06:45.826Z,6.20
2022-12-08T07:07:45.883Z,6.20
2022-12-08T07:08:45.829Z,6.50
2022-12-08T07:09:45.829Z,6.20
2022-12-08T07:10:45.794Z,5.60
2022-12-08T07:11:45.799Z,8.70
2022-12-08T07:12:45.745Z,7.40
2022-12-08T07:13:45.770Z,9.00
2022-12-08T07:14:45.719Z,8.80
2022-12-08T07:15:45.747Z,9.60
2022-12-08T07:16:45.822Z,8.40
2022-12-08T07:17:45.700Z,10.10
2022-12-08T07:18:45.724Z,11.40
2022-12-08T07:19:45.690Z,9.10
2022-12-08T07:20:45.687Z,8.60
2022-12-08T07:21:45.887Z,10.50
2022-12-08T07:22:45.622Z,8.70
2022-12-08T07:23:45.684Z,10.70
2022-12-08T07:24:45.664Z,8.60
2022-12-08T07:25:45.647Z,9.60
2022-12-08T07:26:45.604Z,11.00
2022-12-08T07:27:45.611Z,10.00
2022-12-08T07:28:45.600Z,10.50
2022-12-08T07:29:45.562Z,9.50
2022-12-08T07:30:45.590Z,9.40
2022-12-08T07:31:45.573Z,10.10
2022-12-08T07:32:45.532Z,10.40
2022-12-08T07:33:45.591Z,10.10
2022-12-08T07:34:47.339Z,10.50
2022-12-08T07:35:49.302Z,9.00
2022-12-08T07:36:45.491Z,10.40
2022-12-08T07:37:45.503Z,11.60
2022-12-08T07:38:45.476Z,10.10
2022-12-08T07:39:45.573Z,12.50
2022-12-08T07:40:45.431Z,9.60
2022-12-08T07:41:45.436Z,12.10
2022-12-08T07:42:45.426Z,14.70
2022-12-08T07:43:45.395Z,9.20
2022-12-08T07:44:45.415Z,12.40
2022-12-08T07:45:45.407Z,10.30
2022-12-08T07:46:45.458Z,9.20
2022-12-08T07:47:45.396Z,10.00
2022-12-08T07:48:45.344Z,12.30
2022-12-08T07:49:45.312Z,10.20
2022-12-08T07:50:45.291Z,10.30
2022-12-08T07:51:45.283Z,11.60
2022-12-08T07:52:45.346Z,10.60
2022-12-08T07:53:49.903Z,11.10
2022-12-08T07:54:46.272Z,10.60
2022-12-08T07:55:45.286Z,12.90
2022-12-08T07:56:45.247Z,9.10
2022-12-08T07:57:45.224Z,9.60
2022-12-08T07:58:46.223Z,11.20
2022-12-08T07:59:45.254Z,8.50
2022-12-08T08:00:45.279Z,12.80
2022-12-08T08:01:45.707Z,10.50
2022-12-08T08:02:45.199Z,7.90
2022-12-08T08:03:46.211Z,8.70
2022-12-08T08:04:45.229Z,9.00
2022-12-08T08:05:45.138Z,9.70
2022-12-08T08:06:45.139Z,8.50
2022-12-08T08:07:45.247Z,10.30
2022-12-08T08:08:45.149Z,8.90
2022-12-08T08:09:45.089Z,9.40
2022-12-08T08:10:45.099Z,10.60
2022-12-08T08:12:01.127Z,9.50
2022-12-08T08:12:46.077Z,7.40
2022-12-08T08:13:45.066Z,10.10
2022-12-08T08:14:45.071Z,10.60
2022-12-08T08:15:45.100Z,8.60
2022-12-08T08:16:45.080Z,9.00
2022-12-08T08:17:45.007Z,9.90
2022-12-08T08:18:44.999Z,8.40
2022-12-08T08:19:44.983Z,8.40
2022-12-08T08:20:44.959Z,10.00
2022-12-08T08:21:46.357Z,9.30
2022-12-08T08:22:44.928Z,8.70
2022-12-08T08:23:44.989Z,6.50
2022-12-08T08:24:45.416Z,10.20
2022-12-08T08:25:44.938Z,8.20
2022-12-08T08:26:44.901Z,10.70
2022-12-08T08:27:44.943Z,8.30
2022-12-08T08:28:44.885Z,6.60
2022-12-08T08:29:44.907Z,6.90
2022-12-08T08:30:44.880Z,6.80
2022-12-08T08:31:44.861Z,8.00
2022-12-08T08:32:44.821Z,8.20
2022-12-08T08:33:44.840Z,7.60
2022-12-08T08:34:44.820Z,8.90
2022-12-08T08:35:44.780Z,8.60
2022-12-08T08:36:44.852Z,7.70
2022-12-08T08:37:48.857Z,6.30
2022-12-08T08:38:44.774Z,6.70
2022-12-08T08:39:44.853Z,7.00
2022-12-08T08:40:44.755Z,8.00
2022-12-08T08:41:44.726Z,8.30
2022-12-08T08:42:44.747Z,8.70
2022-12-08T08:43:44.712Z,8.40
2022-12-08T08:44:44.694Z,7.70
2022-12-08T08:45:44.711Z,8.90
2022-12-08T08:46:44.757Z,8.00
2022-12-08T08:47:44.655Z,8.00
2022-12-08T08:48:44.678Z,7.50
2022-12-08T08:49:44.622Z,8.70
2022-12-08T08:50:44.657Z,7.90
2022-12-08T08:51:44.621Z,7.60
2022-12-08T08:52:44.607Z,6.90
2022-12-08T08:53:44.637Z,7.10
2022-12-08T08:54:44.597Z,7.10
2022-12-08T08:55:44.565Z,8.10
2022-12-08T08:56:44.609Z,7.50
2022-12-08T08:57:44.546Z,6.80
2022-12-08T08:58:44.565Z,6.70
2022-12-08T08:59:44.565Z,6.30
2022-12-08T09:00:44.994Z,8.30
2022-12-08T09:01:44.898Z,8.90
2022-12-08T09:02:45.675Z,6.30
2022-12-08T09:03:44.739Z,9.10
2022-12-08T09:04:44.542Z,7.80
2022-12-08T09:05:44.512Z,7.30
2022-12-08T09:06:44.455Z,7.30
2022-12-08T09:07:44.500Z,7.90
2022-12-08T09:08:44.416Z,10.00
2022-12-08T09:09:44.430Z,7.50
2022-12-08T09:10:44.401Z,7.20
2022-12-08T09:11:44.390Z,8.90
2022-12-08T09:12:44.358Z,7.40
2022-12-08T09:13:44.394Z,7.30
2022-12-08T09:14:44.724Z,6.60
2022-12-08T09:15:44.651Z,8.30
2022-12-08T09:16:44.392Z,8.00
2022-12-08T09:17:44.342Z,9.40
2022-12-08T09:18:44.330Z,8.20
2022-12-08T09:19:44.381Z,7.50
2022-12-08T09:20:44.282Z,8.10
2022-12-08T09:21:44.289Z,8.00
2022-12-08T09:22:44.507Z,7.20
2022-12-08T09:23:44.255Z,8.30
2022-12-08T09:24:44.281Z,6.90
2022-12-08T09:25:44.306Z,7.50
2022-12-08T09:26:44.235Z,8.00
2022-12-08T09:27:44.191Z,7.10
2022-12-08T09:28:44.215Z,7.70
2022-12-08T09:29:44.194Z,8.60
2022-12-08T09:30:44.195Z,8.60
2022-12-08T09:31:44.255Z,13.20
2022-12-08T09:32:44.145Z,15.70
2022-12-08T09:33:44.120Z,13.50
2022-12-08T09:34:48.959Z,8.10
2022-12-08T09:35:45.105Z,8.20
2022-12-08T09:36:44.137Z,9.00
2022-12-08T09:37:44.063Z,9.10
2022-12-08T09:38:44.053Z,7.70
2022-12-08T09:39:44.107Z,8.30
2022-12-08T09:40:44.076Z,9.10
2022-12-08T09:41:48.059Z,12.50
2022-12-08T09:42:44.027Z,8.80
2022-12-08T09:43:44.118Z,8.20
2022-12-08T09:44:43.999Z,8.90
2022-12-08T09:45:43.997Z,9.30
2022-12-08T09:46:44.041Z,7.20
2022-12-08T09:47:44.117Z,8.30
2022-12-08T09:48:43.979Z,8.20
2022-12-08T09:49:43.935Z,8.50
2022-12-08T09:50:44.052Z,7.50
2022-12-08T09:51:43.928Z,8.40
2022-12-08T09:52:43.990Z,12.10
2022-12-08T09:53:43.917Z,9.50
2022-12-08T09:54:43.877Z,8.10
2022-12-08T09:55:43.877Z,8.20
2022-12-08T09:56:43.855Z,8.90
2022-12-08T09:57:43.835Z,7.60
2022-12-08T09:58:43.886Z,7.70
2022-12-08T09:59:43.820Z,7.50
2022-12-08T10:00:43.830Z,8.20
2022-12-08T10:01:43.918Z,8.00
2022-12-08T10:02:43.798Z,7.70
2022-12-08T10:03:46.789Z,8.70
2022-12-08T10:04:43.846Z,8.80
2022-12-08T10:05:43.761Z,7.60
2022-12-08T10:06:43.743Z,7.50
2022-12-08T10:07:43.824Z,7.10
2022-12-08T10:08:43.726Z,6.50
2022-12-08T10:09:43.721Z,7.70
2022-12-08T10:10:43.718Z,6.90
2022-12-08T10:11:43.702Z,7.20
2022-12-08T10:12:43.664Z,7.10
2022-12-08T10:13:43.650Z,6.70
2022-12-08T10:14:43.642Z,6.80
2022-12-08T10:15:43.673Z,6.70
2022-12-08T10:16:43.696Z,7.30
2022-12-08T10:17:43.604Z,6.60
2022-12-08T10:18:43.582Z,7.40
2022-12-08T10:19:43.581Z,6.80
2022-12-08T10:20:43.560Z,6.60
2022-12-08T10:21:43.855Z,6.40
2022-12-08T10:22:45.071Z,7.10
2022-12-08T10:23:43.530Z,6.50
2022-12-08T10:24:43.714Z,7.70
2022-12-08T10:25:43.506Z,8.00
2022-12-08T10:26:43.565Z,8.00
2022-12-08T10:27:43.495Z,9.70
2022-12-08T10:28:45.523Z,9.30
2022-12-08T10:29:43.496Z,8.40
2022-12-08T10:30:43.455Z,9.10
2022-12-08T10:31:43.505Z,6.80
2022-12-08T10:32:43.525Z,6.40
2022-12-08T10:33:43.409Z,7.00
2022-12-08T10:34:43.407Z,6.60
2022-12-08T10:35:43.394Z,6.30
2022-12-08T10:36:43.398Z,7.10
2022-12-08T10:37:43.406Z,6.50
2022-12-08T10:38:43.375Z,6.50
2022-12-08T10:39:43.335Z,6.30
2022-12-08T10:40:45.714Z,7.00
2022-12-08T10:41:43.335Z,6.10
2022-12-08T10:42:43.293Z,6.10
2022-12-08T10:43:43.318Z,7.10
2022-12-08T10:44:43.293Z,5.90
2022-12-08T10:45:43.268Z,7.50
2022-12-08T10:46:43.323Z,6.10
2022-12-08T10:47:45.293Z,9.60
2022-12-08T10:48:43.231Z,6.60
2022-12-08T10:49:43.269Z,7.30
2022-12-08T10:50:43.210Z,6.00
2022-12-08T10:51:43.231Z,7.60
2022-12-08T10:52:43.181Z,6.50
2022-12-08T10:53:43.240Z,5.80
2022-12-08T10:54:43.198Z,6.30
2022-12-08T10:55:43.189Z,7.10
2022-12-08T10:56:43.131Z,6.60
2022-12-08T10:57:43.139Z,10.80
2022-12-08T10:58:43.453Z,5.60
2022-12-08T10:59:43.087Z,5.80
2022-12-08T11:00:43.316Z,7.00
2022-12-08T11:01:43.209Z,5.20
2022-12-08T11:02:43.143Z,6.60
2022-12-08T11:03:43.073Z,8.10
2022-12-08T11:04:43.072Z,7.10
2022-12-08T11:05:43.033Z,7.30
2022-12-08T11:06:43.060Z,5.60
2022-12-08T11:07:43.017Z,5.30
2022-12-08T11:08:42.993Z,5.80
2022-12-08T11:09:43.004Z,4.60
2022-12-08T11:10:42.951Z,7.30
2022-12-08T11:11:43.005Z,6.80
2022-12-08T11:12:42.974Z,5.70
2022-12-08T11:13:42.975Z,8.60
2022-12-08T11:14:42.949Z,8.20
2022-12-08T11:15:42.890Z,6.80
2022-12-08T11:16:43.005Z,5.40
2022-12-08T11:17:42.924Z,6.90
2022-12-08T11:18:42.904Z,5.00
2022-12-08T11:19:42.905Z,8.00
2022-12-08T11:20:42.832Z,5.80
2022-12-08T11:21:42.844Z,6.30
2022-12-08T11:22:42.856Z,5.20
2022-12-08T11:23:42.814Z,4.30
2022-12-08T11:24:42.823Z,6.70
2022-12-08T11:25:42.848Z,7.70
2022-12-08T11:26:42.788Z,7.00
2022-12-08T11:27:42.778Z,7.30
2022-12-08T11:28:42.754Z,9.10
2022-12-08T11:29:42.743Z,6.00
2022-12-08T11:30:42.747Z,5.50
2022-12-08T11:31:42.778Z,5.10
2022-12-08T11:32:42.695Z,5.00
2022-12-08T11:33:42.677Z,3.90
2022-12-08T11:34:42.709Z,7.10
2022-12-08T11:35:42.674Z,6.50
2022-12-08T11:36:42.710Z,4.20
2022-12-08T11:37:42.646Z,6.30
2022-12-08T11:38:42.654Z,8.10
2022-12-08T11:39:42.651Z,7.70
2022-12-08T11:40:42.631Z,10.20
2022-12-08T11:41:42.607Z,6.40
2022-12-08T11:42:42.590Z,12.00
2022-12-08T11:43:42.591Z,10.90
2022-12-08T11:44:42.568Z,6.40
2022-12-08T11:45:42.599Z,3.90
2022-12-08T11:46:42.582Z,5.10
2022-12-08T11:47:42.542Z,4.50
2022-12-08T11:48:42.522Z,3.90
2022-12-08T11:49:42.532Z,5.60
2022-12-08T11:50:42.523Z,4.50
2022-12-08T11:51:42.500Z,5.60
2022-12-08T11:52:42.506Z,3.80
2022-12-08T11:53:42.467Z,3.60
2022-12-08T11:54:42.467Z,5.10
2022-12-08T11:55:46.608Z,4.30
2022-12-08T11:56:43.412Z,4.10
2022-12-08T11:57:42.537Z,4.90
2022-12-08T11:58:42.435Z,7.10
2022-12-08T11:59:42.429Z,6.10
2022-12-08T12:00:42.372Z,5.60
2022-12-08T12:01:42.942Z,3.80
2022-12-08T12:02:42.478Z,5.20
2022-12-08T12:03:42.376Z,3.80
2022-12-08T12:04:42.383Z,4.00
2022-12-08T12:06:46.484Z,3.90
2022-12-08T12:06:58.562Z,4.50
2022-12-08T12:07:43.357Z,3.80
2022-12-08T12:08:42.282Z,4.00
2022-12-08T12:09:42.293Z,4.40
2022-12-08T12:10:42.299Z,4.50
2022-12-08T12:11:42.246Z,4.30
2022-12-08T12:12:42.246Z,4.20
2022-12-08T12:13:42.224Z,4.40
2022-12-08T12:14:42.225Z,5.30
2022-12-08T12:15:42.214Z,4.70
2022-12-08T12:16:42.276Z,4.80
2022-12-08T12:17:42.165Z,5.30
2022-12-08T12:18:42.178Z,3.80
2022-12-08T12:19:42.186Z,5.20
2022-12-08T12:20:42.135Z,4.90
2022-12-08T12:21:42.137Z,4.00
2022-12-08T12:22:42.179Z,5.40
2022-12-08T12:23:42.126Z,4.40
2022-12-08T12:24:42.087Z,6.40
2022-12-08T12:25:42.088Z,5.40
2022-12-08T12:26:42.067Z,4.30
2022-12-08T12:27:42.048Z,4.00
2022-12-08T12:28:42.081Z,3.00
2022-12-08T12:29:42.041Z,4.30
2022-12-08T12:30:42.046Z,4.50
2022-12-08T12:31:42.021Z,4.40
2022-12-08T12:32:42.001Z,4.20
2022-12-08T12:33:42.040Z,5.00
2022-12-08T12:34:41.970Z,5.30
2022-12-08T12:35:41.970Z,4.70
2022-12-08T12:36:41.969Z,5.20
2022-12-08T12:37:41.982Z,4.30
2022-12-08T12:38:41.954Z,3.00
2022-12-08T12:39:41.949Z,3.00
2022-12-08T12:40:41.915Z,4.60
2022-12-08T12:41:41.902Z,4.80
2022-12-08T12:42:41.969Z,4.10
2022-12-08T12:43:41.874Z,4.40
2022-12-08T12:44:41.944Z,3.80
2022-12-08T12:45:41.853Z,2.60
2022-12-08T12:46:42.322Z,3.70
2022-12-08T12:47:41.834Z,4.40
2022-12-08T12:48:41.801Z,3.70
2022-12-08T12:49:42.142Z,3.20
2022-12-08T12:50:41.828Z,3.10
2022-12-08T12:51:42.119Z,3.80
2022-12-08T12:52:42.266Z,3.00
2022-12-08T12:53:41.792Z,5.50
2022-12-08T12:54:41.985Z,3.90
2022-12-08T12:55:41.755Z,3.20
2022-12-08T12:56:41.720Z,4.00
2022-12-08T12:57:41.728Z,3.80
2022-12-08T12:58:41.947Z,5.00
2022-12-08T12:59:41.695Z,3.20
2022-12-08T13:00:41.715Z,4.30
2022-12-08T13:01:41.720Z,4.10
2022-12-08T13:02:41.707Z,3.90
2022-12-08T13:03:41.638Z,3.50
2022-12-08T13:04:41.616Z,4.10
2022-12-08T13:05:41.606Z,4.60
2022-12-08T13:06:41.649Z,4.60
2022-12-08T13:07:41.657Z,3.70
2022-12-08T13:08:41.580Z,4.30
2022-12-08T13:09:41.589Z,4.40
2022-12-08T13:10:41.552Z,5.40
2022-12-08T13:11:46.372Z,3.90
2022-12-08T13:12:42.532Z,4.20
2022-12-08T13:13:42.549Z,3.30